createdAt,value
2018-06-02T00:00:08.438Z,1010.48
2018-06-02T00:01:08.422Z,1010.43
2018-06-02T00:02:08.402Z,1010.45
2018-06-02T00:03:08.389Z,1010.46
2018-06-02T00:04:08.380Z,1010.47
2018-06-02T00:05:08.400Z,1010.47
2018-06-02T00:06:08.358Z,1010.45
2018-06-02T00:07:08.340Z,1010.45
2018-06-02T00:08:08.340Z,1010.44
2018-06-02T00:09:08.328Z,1010.39
2018-06-02T00:10:08.310Z,1010.41
2018-06-02T00:12:08.292Z,1010.44
2018-06-02T00:13:08.279Z,1010.41
2018-06-02T00:14:08.266Z,1010.39
2018-06-02T00:15:08.253Z,1010.42
2018-06-02T00:16:08.242Z,1010.46
2018-06-02T00:17:08.228Z,1010.43
2018-06-02T00:18:08.223Z,1010.47
2018-06-02T00:19:08.212Z,1010.45
2018-06-02T00:20:08.195Z,1010.44
2018-06-02T00:21:08.193Z,1010.43
2018-06-02T00:22:08.167Z,1010.41
2018-06-02T00:23:08.161Z,1010.45
2018-06-02T00:24:08.158Z,1010.46
2018-06-02T00:25:08.136Z,1010.48
2018-06-02T00:26:08.128Z,1010.49
2018-06-02T00:27:08.116Z,1010.49
2018-06-02T00:28:08.101Z,1010.51
2018-06-02T00:29:08.087Z,1010.48
2018-06-02T00:30:08.078Z,1010.46
2018-06-02T00:32:08.056Z,1010.49
2018-06-02T00:33:08.054Z,1010.50
2018-06-02T00:34:08.039Z,1010.49
2018-06-02T00:35:08.017Z,1010.51
2018-06-02T00:36:08.008Z,1010.57
2018-06-02T00:37:08.010Z,1010.47
2018-06-02T00:38:07.992Z,1010.49
2018-06-02T00:39:07.988Z,1010.51
2018-06-02T00:40:07.960Z,1010.48
2018-06-02T00:41:07.946Z,1010.50
2018-06-02T00:42:07.947Z,1010.52
2018-06-02T00:43:07.927Z,1010.43
2018-06-02T00:44:07.922Z,1010.45
2018-06-02T00:45:07.919Z,1010.46
2018-06-02T00:47:07.886Z,1010.38
2018-06-02T00:48:07.867Z,1010.42
2018-06-02T00:49:07.857Z,1010.42
2018-06-02T00:50:07.849Z,1010.46
2018-06-02T00:51:07.840Z,1010.47
2018-06-02T00:52:07.822Z,1010.46
2018-06-02T00:53:07.822Z,1010.49
2018-06-02T00:54:07.803Z,1010.51
2018-06-02T00:55:07.791Z,1010.49
2018-06-02T00:56:07.778Z,1010.48
2018-06-02T00:57:07.865Z,1010.44
2018-06-02T00:58:07.752Z,1010.46
2018-06-02T00:59:07.748Z,1010.47
2018-06-02T01:00:07.733Z,1010.44
2018-06-02T01:01:07.715Z,1010.37
2018-06-02T01:03:07.701Z,1010.36
2018-06-02T01:04:07.689Z,1010.40
2018-06-02T01:05:07.676Z,1010.37
2018-06-02T01:06:07.663Z,1010.32
2018-06-02T01:07:07.643Z,1010.40
2018-06-02T01:09:07.628Z,1010.38
2018-06-02T01:10:07.615Z,1010.36
2018-06-02T01:11:07.603Z,1010.37
2018-06-02T01:12:07.589Z,1010.36
2018-06-02T01:13:07.577Z,1010.36
2018-06-02T01:14:07.574Z,1010.33
2018-06-02T01:15:07.557Z,1010.33
2018-06-02T01:16:07.551Z,1010.39
2018-06-02T01:17:07.533Z,1010.34
2018-06-02T01:18:07.517Z,1010.25
2018-06-02T01:19:07.507Z,1010.36
2018-06-02T01:20:07.492Z,1010.37
2018-06-02T01:21:07.484Z,1010.37
2018-06-02T01:22:07.472Z,1010.37
2018-06-02T01:23:07.462Z,1010.38
2018-06-02T01:24:07.452Z,1010.37
2018-06-02T01:25:07.439Z,1010.32
2018-06-02T01:26:07.440Z,1010.33
2018-06-02T01:27:07.409Z,1010.35
2018-06-02T01:29:07.389Z,1010.31
2018-06-02T01:30:07.374Z,1010.32
2018-06-02T01:31:07.371Z,1010.28
2018-06-02T01:32:07.353Z,1010.28
2018-06-02T01:33:07.340Z,1010.28
2018-06-02T01:36:07.304Z,1010.31
2018-06-02T01:37:07.301Z,1010.34
2018-06-02T01:38:07.294Z,1010.37
2018-06-02T01:40:07.382Z,1010.38
2018-06-02T01:41:07.240Z,1010.35
2018-06-02T01:42:07.233Z,1010.38
2018-06-02T01:43:07.218Z,1010.37
2018-06-02T01:44:07.208Z,1010.35
2018-06-02T01:46:07.269Z,1010.35
2018-06-02T01:47:07.178Z,1010.32
2018-06-02T01:48:07.174Z,1010.38
2018-06-02T01:49:07.153Z,1010.38
2018-06-02T01:50:07.189Z,1010.39
2018-06-02T01:51:07.126Z,1010.36
2018-06-02T01:52:07.113Z,1010.36
2018-06-02T01:53:07.107Z,1010.37
2018-06-02T01:55:07.082Z,1010.34
2018-06-02T01:56:07.062Z,1010.38
2018-06-02T01:57:07.057Z,1010.41
2018-06-02T01:58:07.043Z,1010.38
2018-06-02T01:59:07.027Z,1010.43
2018-06-02T02:01:07.008Z,1010.39
2018-06-02T02:02:06.995Z,1010.38
2018-06-02T02:03:06.981Z,1010.33
2018-06-02T02:04:06.969Z,1010.34
2018-06-02T02:05:06.955Z,1010.34
2018-06-02T02:06:06.944Z,1010.34
2018-06-02T02:07:06.939Z,1010.33
2018-06-02T02:08:06.917Z,1010.31
2018-06-02T02:09:06.908Z,1010.27
2018-06-02T02:10:06.899Z,1010.28
2018-06-02T02:11:06.886Z,1010.28
2018-06-02T02:12:06.868Z,1010.25
2018-06-02T02:13:06.860Z,1010.27
2018-06-02T02:14:06.847Z,1010.25
2018-06-02T02:15:06.838Z,1010.26
2018-06-02T02:16:06.822Z,1010.25
2018-06-02T02:17:06.820Z,1010.25
2018-06-02T02:18:06.809Z,1010.26
2018-06-02T02:19:06.780Z,1010.27
2018-06-02T02:20:06.782Z,1010.28
2018-06-02T02:21:06.765Z,1010.31
2018-06-02T02:22:06.749Z,1010.28
2018-06-02T02:23:06.737Z,1010.26
2018-06-02T02:24:06.724Z,1010.29
2018-06-02T02:25:06.711Z,1010.28
2018-06-02T02:26:06.704Z,1010.27
2018-06-02T02:27:06.692Z,1010.29
2018-06-02T02:28:06.683Z,1010.25
2018-06-02T02:29:06.668Z,1010.25
2018-06-02T02:30:06.659Z,1010.23
2018-06-02T02:32:06.628Z,1010.27
2018-06-02T02:33:06.629Z,1010.26
2018-06-02T02:34:06.609Z,1010.27
2018-06-02T02:35:06.598Z,1010.30
2018-06-02T02:36:06.584Z,1010.30
2018-06-02T02:37:06.570Z,1010.31
2018-06-02T02:38:06.557Z,1010.28
2018-06-02T02:39:06.545Z,1010.33
2018-06-02T02:40:06.529Z,1010.30
2018-06-02T02:41:06.523Z,1010.28
2018-06-02T02:42:06.518Z,1010.29
2018-06-02T02:43:06.497Z,1010.28
2018-06-02T02:44:06.495Z,1010.31
2018-06-02T02:45:06.473Z,1010.33
2018-06-02T02:46:06.465Z,1010.29
2018-06-02T02:47:06.456Z,1010.35
2018-06-02T02:48:06.453Z,1010.33
2018-06-02T02:49:06.432Z,1010.29
2018-06-02T02:50:06.414Z,1010.38
2018-06-02T02:51:06.403Z,1010.30
2018-06-02T02:52:06.388Z,1010.31
2018-06-02T02:53:06.373Z,1010.33
2018-06-02T02:54:06.365Z,1010.35
2018-06-02T02:55:06.353Z,1010.39
2018-06-02T02:57:06.378Z,1010.34
2018-06-02T02:58:06.318Z,1010.36
2018-06-02T02:59:06.352Z,1010.38
2018-06-02T03:00:06.291Z,1010.35
2018-06-02T03:01:06.278Z,1010.42
2018-06-02T03:04:06.243Z,1010.45
2018-06-02T03:05:06.235Z,1010.38
2018-06-02T03:06:06.218Z,1010.42
2018-06-02T03:07:06.304Z,1010.44
2018-06-02T03:08:06.195Z,1010.42
2018-06-02T03:09:06.192Z,1010.48
2018-06-02T03:10:06.163Z,1010.48
2018-06-02T03:11:06.222Z,1010.44
2018-06-02T03:12:06.141Z,1010.50
2018-06-02T03:13:06.138Z,1010.50
2018-06-02T03:14:06.121Z,1010.51
2018-06-02T03:15:06.111Z,1010.52
2018-06-02T03:16:06.096Z,1010.53
2018-06-02T03:18:06.079Z,1010.54
2018-06-02T03:19:06.057Z,1010.49
2018-06-02T03:20:06.041Z,1010.53
2018-06-02T03:21:06.036Z,1010.50
2018-06-02T03:22:06.027Z,1010.53
2018-06-02T03:23:06.013Z,1010.55
2018-06-02T03:24:06.000Z,1010.54
2018-06-02T03:25:05.981Z,1010.50
2018-06-02T03:26:05.978Z,1010.48
2018-06-02T03:28:05.950Z,1010.49
2018-06-02T03:29:05.937Z,1010.50
2018-06-02T03:30:05.930Z,1010.48
2018-06-02T03:31:05.937Z,1010.47
2018-06-02T03:32:05.902Z,1010.57
2018-06-02T03:33:05.887Z,1010.58
2018-06-02T03:34:05.880Z,1010.55
2018-06-02T03:35:05.867Z,1010.51
2018-06-02T03:36:05.849Z,1010.52
2018-06-02T03:37:05.850Z,1010.54
2018-06-02T03:38:05.824Z,1010.53
2018-06-02T03:39:05.822Z,1010.54
2018-06-02T03:40:05.806Z,1010.50
2018-06-02T03:41:05.786Z,1010.54
2018-06-02T03:42:05.777Z,1010.55
2018-06-02T03:43:05.762Z,1010.57
2018-06-02T03:44:05.757Z,1010.57
2018-06-02T03:45:05.742Z,1010.54
2018-06-02T03:46:05.729Z,1010.59
2018-06-02T03:47:05.716Z,1010.57
2018-06-02T03:48:05.718Z,1010.57
2018-06-02T03:49:05.701Z,1010.57
2018-06-02T03:50:05.685Z,1010.58
2018-06-02T03:51:05.671Z,1010.61
2018-06-02T03:52:05.659Z,1010.59
2018-06-02T03:53:05.646Z,1010.61
2018-06-02T03:54:05.642Z,1010.57
2018-06-02T03:55:05.618Z,1010.66
2018-06-02T03:56:05.676Z,1010.65
2018-06-02T03:57:05.589Z,1010.66
2018-06-02T03:59:05.574Z,1010.65
2018-06-02T04:00:05.557Z,1010.67
2018-06-02T04:01:05.548Z,1010.60
2018-06-02T04:02:05.534Z,1010.66
2018-06-02T04:03:05.519Z,1010.68
2018-06-02T04:04:05.509Z,1010.66
2018-06-02T04:05:05.496Z,1010.64
2018-06-02T04:06:05.482Z,1010.66
2018-06-02T04:07:05.477Z,1010.70
2018-06-02T04:08:05.454Z,1010.68
2018-06-02T04:10:05.430Z,1010.68
2018-06-02T04:11:05.422Z,1010.66
2018-06-02T04:12:05.409Z,1010.71
2018-06-02T04:13:05.397Z,1010.70
2018-06-02T04:14:05.391Z,1010.70
2018-06-02T04:15:05.384Z,1010.71
2018-06-02T04:16:05.358Z,1010.71
2018-06-02T04:17:05.346Z,1010.73
2018-06-02T04:18:05.340Z,1010.78
2018-06-02T04:19:05.324Z,1010.74
2018-06-02T04:20:05.317Z,1010.78
2018-06-02T04:21:05.301Z,1010.73
2018-06-02T04:22:05.289Z,1010.77
2018-06-02T04:23:05.280Z,1010.79
2018-06-02T04:24:05.267Z,1010.79
2018-06-02T04:25:05.258Z,1010.77
2018-06-02T04:26:05.241Z,1010.77
2018-06-02T04:27:05.232Z,1010.75
2018-06-02T04:28:05.215Z,1010.79
2018-06-02T04:29:05.203Z,1010.78
2018-06-02T04:30:05.189Z,1010.76
2018-06-02T04:31:05.175Z,1010.77
2018-06-02T04:32:05.172Z,1010.83
2018-06-02T04:33:05.152Z,1010.84
2018-06-02T04:34:05.146Z,1010.84
2018-06-02T04:36:05.132Z,1010.83
2018-06-02T04:39:05.091Z,1010.82
2018-06-02T04:41:05.060Z,1010.78
2018-06-02T04:42:05.044Z,1010.79
2018-06-02T04:43:05.031Z,1010.79
2018-06-02T04:44:05.070Z,1010.75
2018-06-02T04:45:05.009Z,1010.81
2018-06-02T04:46:04.992Z,1010.75
2018-06-02T04:47:04.979Z,1010.71
2018-06-02T04:48:04.969Z,1010.77
2018-06-02T04:49:04.958Z,1010.75
2018-06-02T04:50:04.953Z,1010.77
2018-06-02T04:51:04.939Z,1010.80
2018-06-02T04:52:04.916Z,1010.78
2018-06-02T04:53:04.911Z,1010.79
2018-06-02T04:54:04.900Z,1010.83
2018-06-02T04:55:04.886Z,1010.83
2018-06-02T04:56:04.883Z,1010.85
2018-06-02T04:57:04.860Z,1010.86
2018-06-02T04:58:04.840Z,1010.91
2018-06-02T04:59:04.841Z,1010.91
2018-06-02T05:00:04.822Z,1010.88
2018-06-02T05:01:04.808Z,1010.97
2018-06-02T05:02:04.802Z,1010.94
2018-06-02T05:03:04.789Z,1010.95
2018-06-02T05:04:04.783Z,1010.95
2018-06-02T05:05:04.794Z,1010.91
2018-06-02T05:06:04.753Z,1010.91
2018-06-02T05:07:04.746Z,1010.92
2018-06-02T05:08:04.726Z,1010.89
2018-06-02T05:09:04.737Z,1010.89
2018-06-02T05:10:04.700Z,1010.89
2018-06-02T05:11:04.836Z,1010.94
2018-06-02T05:12:04.676Z,1010.94
2018-06-02T05:13:04.743Z,1010.92
2018-06-02T05:14:04.654Z,1010.95
2018-06-02T05:16:04.632Z,1010.93
2018-06-02T05:17:04.722Z,1010.93
2018-06-02T05:18:04.606Z,1010.93
2018-06-02T05:19:04.743Z,1010.94
2018-06-02T05:20:04.579Z,1010.95
2018-06-02T05:21:04.717Z,1010.99
2018-06-02T05:22:04.557Z,1011.02
2018-06-02T05:23:04.586Z,1011.01
2018-06-02T05:24:04.531Z,1011.04
2018-06-02T05:25:04.522Z,1011.06
2018-06-02T05:26:04.511Z,1011.09
2018-06-02T05:27:04.512Z,1011.15
2018-06-02T05:28:04.485Z,1011.16
2018-06-02T05:29:04.544Z,1011.13
2018-06-02T05:30:04.466Z,1011.10
2018-06-02T05:31:04.499Z,1011.13
2018-06-02T05:32:04.444Z,1011.12
2018-06-02T05:33:04.422Z,1011.15
2018-06-02T05:34:04.407Z,1011.12
2018-06-02T05:35:04.400Z,1011.19
2018-06-02T05:36:04.390Z,1011.18
2018-06-02T05:37:04.384Z,1011.16
2018-06-02T05:38:04.370Z,1011.14
2018-06-02T05:39:04.364Z,1011.17
2018-06-02T05:40:04.342Z,1011.16
2018-06-02T05:41:04.329Z,1011.15
2018-06-02T05:42:04.321Z,1011.20
2018-06-02T05:43:04.305Z,1011.19
2018-06-02T05:44:04.290Z,1011.23
2018-06-02T05:45:04.277Z,1011.20
2018-06-02T05:46:04.261Z,1011.22
2018-06-02T05:47:04.253Z,1011.21
2018-06-02T05:48:04.238Z,1011.20
2018-06-02T05:49:04.229Z,1011.24
2018-06-02T05:50:04.217Z,1011.23
2018-06-02T05:51:04.206Z,1011.23
2018-06-02T05:52:04.189Z,1011.26
2018-06-02T05:53:04.175Z,1011.25
2018-06-02T05:54:04.174Z,1011.26
2018-06-02T05:55:04.162Z,1011.24
2018-06-02T05:56:04.141Z,1011.21
2018-06-02T05:57:04.127Z,1011.22
2018-06-02T05:58:04.118Z,1011.22
2018-06-02T05:59:04.113Z,1011.22
2018-06-02T06:00:04.101Z,1011.25
2018-06-02T06:01:04.082Z,1011.26
2018-06-02T06:02:04.072Z,1011.22
2018-06-02T06:03:04.061Z,1011.20
2018-06-02T06:04:04.037Z,1011.24
2018-06-02T06:05:04.036Z,1011.22
2018-06-02T06:06:04.021Z,1011.20
2018-06-02T06:07:04.011Z,1011.20
2018-06-02T06:08:03.991Z,1011.20
2018-06-02T06:09:03.985Z,1011.21
2018-06-02T06:10:03.977Z,1011.19
2018-06-02T06:11:03.966Z,1011.21
2018-06-02T06:14:03.921Z,1011.19
2018-06-02T06:15:03.912Z,1011.22
2018-06-02T06:16:03.899Z,1011.18
2018-06-02T06:17:03.889Z,1011.17
2018-06-02T06:18:03.877Z,1011.22
2018-06-02T06:19:03.861Z,1011.22
2018-06-02T06:20:03.851Z,1011.17
2018-06-02T06:21:03.842Z,1011.19
2018-06-02T06:22:03.831Z,1011.18
2018-06-02T06:23:03.822Z,1011.17
2018-06-02T06:24:03.796Z,1011.19
2018-06-02T06:25:03.787Z,1011.20
2018-06-02T06:26:03.777Z,1011.17
2018-06-02T06:27:03.765Z,1011.18
2018-06-02T06:28:03.751Z,1011.18
2018-06-02T06:29:03.747Z,1011.20
2018-06-02T06:30:03.735Z,1011.20
2018-06-02T06:31:03.724Z,1011.16
2018-06-02T06:32:03.706Z,1011.21
2018-06-02T06:36:03.660Z,1011.18
2018-06-02T06:37:03.637Z,1011.22
2018-06-02T06:38:03.625Z,1011.21
2018-06-02T06:42:03.626Z,1011.20
2018-06-02T06:43:03.568Z,1011.23
2018-06-02T06:44:03.561Z,1011.26
2018-06-02T06:45:03.545Z,1011.23
2018-06-02T06:46:03.536Z,1011.26
2018-06-02T06:47:03.523Z,1011.27
2018-06-02T06:48:03.562Z,1011.30
2018-06-02T06:49:03.497Z,1011.31
2018-06-02T06:50:03.494Z,1011.30
2018-06-02T06:51:03.479Z,1011.31
2018-06-02T06:52:03.462Z,1011.34
2018-06-02T06:53:03.455Z,1011.35
2018-06-02T06:54:03.436Z,1011.29
2018-06-02T06:55:03.427Z,1011.32
2018-06-02T06:56:03.417Z,1011.31
2018-06-02T06:57:03.394Z,1011.30
2018-06-02T06:58:03.386Z,1011.31
2018-06-02T06:59:03.381Z,1011.33
2018-06-02T07:00:03.365Z,1011.33
2018-06-02T07:01:03.359Z,1011.35
2018-06-02T07:02:03.352Z,1011.36
2018-06-02T07:03:03.331Z,1011.37
2018-06-02T07:04:03.321Z,1011.38
2018-06-02T07:05:03.305Z,1011.38
2018-06-02T07:06:03.285Z,1011.40
2018-06-02T07:07:03.282Z,1011.41
2018-06-02T07:08:03.267Z,1011.36
2018-06-02T07:10:03.241Z,1011.40
2018-06-02T07:11:03.232Z,1011.39
2018-06-02T07:12:03.234Z,1011.43
2018-06-02T07:13:03.215Z,1011.42
2018-06-02T07:14:03.197Z,1011.42
2018-06-02T07:15:03.186Z,1011.41
2018-06-02T07:16:03.171Z,1011.40
2018-06-02T07:17:03.159Z,1011.44
2018-06-02T07:18:03.152Z,1011.43
2018-06-02T07:19:03.184Z,1011.45
2018-06-02T07:20:03.117Z,1011.41
2018-06-02T07:21:03.127Z,1011.46
2018-06-02T07:22:03.108Z,1011.47
2018-06-02T07:23:03.094Z,1011.48
2018-06-02T07:25:03.066Z,1011.55
2018-06-02T07:26:03.049Z,1011.54
2018-06-02T07:27:03.062Z,1011.50
2018-06-02T07:28:03.028Z,1011.56
2018-06-02T07:29:03.140Z,1011.51
2018-06-02T07:30:02.999Z,1011.55
2018-06-02T07:31:02.993Z,1011.52
2018-06-02T07:32:02.977Z,1011.55
2018-06-02T07:33:02.970Z,1011.56
2018-06-02T07:34:02.951Z,1011.55
2018-06-02T07:35:03.091Z,1011.58
2018-06-02T07:36:02.952Z,1011.56
2018-06-02T07:37:02.967Z,1011.57
2018-06-02T07:38:02.906Z,1011.58
2018-06-02T07:39:02.899Z,1011.63
2018-06-02T07:40:02.881Z,1011.59
2018-06-02T07:41:02.874Z,1011.57
2018-06-02T07:42:02.858Z,1011.56
2018-06-02T07:43:02.851Z,1011.58
2018-06-02T07:44:02.827Z,1011.58
2018-06-02T07:45:02.819Z,1011.59
2018-06-02T07:46:02.814Z,1011.58
2018-06-02T07:47:02.800Z,1011.56
2018-06-02T07:48:02.779Z,1011.56
2018-06-02T07:49:02.785Z,1011.49
2018-06-02T07:50:02.834Z,1011.54
2018-06-02T07:51:02.747Z,1011.54
2018-06-02T07:52:02.736Z,1011.52
2018-06-02T07:53:02.719Z,1011.50
2018-06-02T07:54:02.714Z,1011.52
2018-06-02T07:55:02.702Z,1011.51
2018-06-02T07:56:02.687Z,1011.52
2018-06-02T07:57:02.683Z,1011.55
2018-06-02T07:58:02.657Z,1011.54
2018-06-02T07:59:02.651Z,1011.51
2018-06-02T08:00:02.635Z,1011.51
2018-06-02T08:01:02.625Z,1011.47
2018-06-02T08:02:02.611Z,1011.53
2018-06-02T08:03:02.615Z,1011.50
2018-06-02T08:04:02.590Z,1011.52
2018-06-02T08:05:02.576Z,1011.49
2018-06-02T08:06:02.566Z,1011.49
2018-06-02T08:07:02.553Z,1011.49
2018-06-02T08:08:02.544Z,1011.45
2018-06-02T08:09:02.532Z,1011.46
2018-06-02T08:10:02.524Z,1011.43
2018-06-02T08:11:02.513Z,1011.43
2018-06-02T08:12:02.490Z,1011.45
2018-06-02T08:13:02.483Z,1011.42
2018-06-02T08:14:02.477Z,1011.42
2018-06-02T08:15:02.462Z,1011.45
2018-06-02T08:16:02.448Z,1011.44
2018-06-02T08:17:02.443Z,1011.45
2018-06-02T08:18:02.431Z,1011.49
2018-06-02T08:19:02.418Z,1011.48
2018-06-02T08:20:02.397Z,1011.51
2018-06-02T08:21:02.391Z,1011.47
2018-06-02T08:22:02.379Z,1011.51
2018-06-02T08:23:02.367Z,1011.52
2018-06-02T08:24:02.361Z,1011.46
2018-06-02T08:25:02.338Z,1011.47
2018-06-02T08:26:02.337Z,1011.47
2018-06-02T08:27:02.325Z,1011.46
2018-06-02T08:28:02.312Z,1011.44
2018-06-02T08:29:02.296Z,1011.47
2018-06-02T08:30:02.286Z,1011.48
2018-06-02T08:31:02.276Z,1011.48
2018-06-02T08:32:02.261Z,1011.57
2018-06-02T08:33:02.250Z,1011.56
2018-06-02T08:34:02.251Z,1011.58
2018-06-02T08:35:02.225Z,1011.56
2018-06-02T08:36:02.222Z,1011.58
2018-06-02T08:37:02.212Z,1011.54
2018-06-02T08:38:02.196Z,1011.61
2018-06-02T08:39:02.187Z,1011.61
2018-06-02T08:40:02.176Z,1011.63
2018-06-02T08:41:02.160Z,1011.60
2018-06-02T08:42:02.149Z,1011.61
2018-06-02T08:43:02.141Z,1011.64
2018-06-02T08:44:02.128Z,1011.64
2018-06-02T08:45:02.116Z,1011.65
2018-06-02T08:46:02.161Z,1011.63
2018-06-02T08:50:02.171Z,1011.68
2018-06-02T08:51:02.048Z,1011.69
2018-06-02T08:52:02.138Z,1011.68
2018-06-02T08:53:02.020Z,1011.67
2018-06-02T08:54:02.116Z,1011.68
2018-06-02T08:55:02.002Z,1011.69
2018-06-02T08:56:02.039Z,1011.75
2018-06-02T08:57:01.977Z,1011.76
2018-06-02T08:58:01.965Z,1011.74
2018-06-02T08:59:01.954Z,1011.73
2018-06-02T09:00:01.943Z,1011.76
2018-06-02T09:01:01.932Z,1011.75
2018-06-02T09:02:01.926Z,1011.79
2018-06-02T09:03:01.913Z,1011.77
2018-06-02T09:04:01.897Z,1011.79
2018-06-02T09:05:01.890Z,1011.83
2018-06-02T09:06:01.877Z,1011.85
2018-06-02T09:07:01.872Z,1011.86
2018-06-02T09:08:01.860Z,1011.87
2018-06-02T09:09:01.854Z,1011.85
2018-06-02T09:10:01.836Z,1011.82
2018-06-02T09:11:01.823Z,1011.82
2018-06-02T09:12:01.820Z,1011.81
2018-06-02T09:13:01.805Z,1011.84
2018-06-02T09:14:01.792Z,1011.84
2018-06-02T09:15:01.790Z,1011.83
2018-06-02T09:16:01.772Z,1011.82
2018-06-02T09:17:01.762Z,1011.82
2018-06-02T09:18:01.750Z,1011.79
2018-06-02T09:19:01.736Z,1011.84
2018-06-02T09:20:01.720Z,1011.83
2018-06-02T09:21:01.717Z,1011.82
2018-06-02T09:22:01.699Z,1011.83
2018-06-02T09:24:01.683Z,1011.86
2018-06-02T09:25:01.673Z,1011.84
2018-06-02T09:26:01.666Z,1011.86
2018-06-02T09:27:01.653Z,1011.83
2018-06-02T09:29:01.628Z,1011.88
2018-06-02T09:30:01.612Z,1011.85
2018-06-02T09:31:01.609Z,1011.86
2018-06-02T09:32:01.597Z,1011.88
2018-06-02T09:33:01.654Z,1011.85
2018-06-02T09:34:01.574Z,1011.87
2018-06-02T09:35:01.728Z,1011.88
2018-06-02T09:36:01.558Z,1011.87
2018-06-02T09:37:01.544Z,1011.91
2018-06-02T09:38:01.531Z,1011.89
2018-06-02T09:39:01.526Z,1011.90
2018-06-02T09:40:01.512Z,1011.92
2018-06-02T09:41:01.512Z,1011.92
2018-06-02T09:42:01.493Z,1011.94
2018-06-02T09:44:01.475Z,1011.96
2018-06-02T09:45:01.460Z,1011.90
2018-06-02T09:46:01.460Z,1011.92
2018-06-02T09:47:01.450Z,1011.95
2018-06-02T09:48:01.449Z,1011.94
2018-06-02T09:49:01.427Z,1011.97
2018-06-02T09:50:01.425Z,1011.98
2018-06-02T09:51:01.408Z,1012.02
2018-06-02T09:52:01.397Z,1012.03
2018-06-02T09:53:01.395Z,1012.04
2018-06-02T09:54:01.380Z,1012.04
2018-06-02T09:55:01.372Z,1012.06
2018-06-02T09:56:01.355Z,1012.04
2018-06-02T09:57:01.342Z,1012.03
2018-06-02T09:58:01.339Z,1012.07
2018-06-02T09:59:01.333Z,1012.03
2018-06-02T10:00:01.321Z,1012.05
2018-06-02T10:01:01.298Z,1012.02
2018-06-02T10:02:01.292Z,1012.06
2018-06-02T10:03:01.288Z,1012.07
2018-06-02T10:04:01.277Z,1012.04
2018-06-02T10:05:01.269Z,1012.04
2018-06-02T10:06:01.259Z,1012.02
2018-06-02T10:07:01.250Z,1012.01
2018-06-02T10:08:01.243Z,1012.02
2018-06-02T10:12:01.192Z,1012.03
2018-06-02T10:13:01.187Z,1012.00
2018-06-02T10:14:01.180Z,1012.01
2018-06-02T10:15:01.173Z,1012.04
2018-06-02T10:16:01.159Z,1012.07
2018-06-02T10:17:01.150Z,1012.03
2018-06-02T10:18:01.141Z,1012.03
2018-06-02T10:19:01.130Z,1012.01
2018-06-02T10:20:01.124Z,1011.99
2018-06-02T10:21:01.113Z,1012.00
2018-06-02T10:22:01.101Z,1011.99
2018-06-02T10:23:01.103Z,1012.01
2018-06-02T10:24:01.078Z,1011.99
2018-06-02T10:25:01.069Z,1011.99
2018-06-02T10:26:01.064Z,1011.97
2018-06-02T10:27:01.052Z,1011.97
2018-06-02T10:28:01.044Z,1011.97
2018-06-02T10:30:01.076Z,1012.01
2018-06-02T10:31:01.009Z,1012.02
2018-06-02T10:32:01.008Z,1012.02
2018-06-02T10:33:00.999Z,1012.04
2018-06-02T10:36:01.070Z,1012.05
2018-06-02T10:37:00.958Z,1012.09
2018-06-02T10:38:00.968Z,1012.05
2018-06-02T10:39:00.932Z,1012.07
2018-06-02T10:40:00.976Z,1012.02
2018-06-02T10:41:00.923Z,1011.98
2018-06-02T10:42:00.914Z,1012.01
2018-06-02T10:43:00.900Z,1012.01
2018-06-02T10:44:00.938Z,1011.99
2018-06-02T10:45:00.881Z,1012.01
2018-06-02T10:46:00.951Z,1012.01
2018-06-02T10:47:00.855Z,1011.96
2018-06-02T10:48:00.848Z,1011.99
2018-06-02T10:49:00.842Z,1012.00
2018-06-02T10:50:00.833Z,1012.01
2018-06-02T10:51:00.819Z,1011.98
2018-06-02T10:52:00.816Z,1012.05
2018-06-02T10:53:00.802Z,1012.05
2018-06-02T10:54:00.791Z,1012.06
2018-06-02T10:56:00.778Z,1012.09
2018-06-02T10:57:00.772Z,1012.14
2018-06-02T10:58:00.762Z,1012.14
2018-06-02T10:59:00.757Z,1012.14
2018-06-02T11:00:00.729Z,1012.09
2018-06-02T11:01:00.721Z,1012.13
2018-06-02T11:02:00.714Z,1012.09
2018-06-02T11:03:00.710Z,1012.13
2018-06-02T11:04:00.704Z,1012.12
2018-06-02T11:05:00.684Z,1012.16
2018-06-02T11:06:00.681Z,1012.14
2018-06-02T11:07:00.673Z,1012.15
2018-06-02T11:08:00.656Z,1012.18
2018-06-02T11:09:00.679Z,1012.10
2018-06-02T11:11:00.631Z,1012.12
2018-06-02T11:12:00.617Z,1012.12
2018-06-02T11:13:00.614Z,1012.13
2018-06-02T11:14:00.600Z,1012.15
2018-06-02T11:15:00.601Z,1012.11
2018-06-02T11:16:00.585Z,1012.14
2018-06-02T11:17:00.579Z,1012.10
2018-06-02T11:18:00.558Z,1012.10
2018-06-02T11:19:00.680Z,1012.13
2018-06-02T11:20:00.553Z,1012.09
2018-06-02T11:21:00.532Z,1012.09
2018-06-02T11:22:00.527Z,1012.16
2018-06-02T11:23:00.512Z,1012.10
2018-06-02T11:24:00.511Z,1012.16
2018-06-02T11:25:00.596Z,1012.12
2018-06-02T11:26:00.488Z,1012.10
2018-06-02T11:27:00.537Z,1012.08
2018-06-02T11:28:00.473Z,1012.07
2018-06-02T11:29:00.462Z,1012.09
2018-06-02T11:30:00.450Z,1012.07
2018-06-02T11:31:00.487Z,1012.06
2018-06-02T11:32:00.422Z,1012.05
2018-06-02T11:33:00.417Z,1012.07
2018-06-02T11:34:00.407Z,1012.03
2018-06-02T11:35:00.410Z,1012.03
2018-06-02T11:36:00.382Z,1012.05
2018-06-02T11:37:00.381Z,1012.06
2018-06-02T11:38:00.368Z,1012.05
2018-06-02T11:39:00.358Z,1012.02
2018-06-02T11:40:00.354Z,1012.00
2018-06-02T11:41:00.338Z,1012.03
2018-06-02T11:42:00.336Z,1012.07
2018-06-02T11:43:00.316Z,1012.05
2018-06-02T11:44:00.335Z,1012.08
2018-06-02T11:45:00.299Z,1012.07
2018-06-02T11:46:00.287Z,1012.10
2018-06-02T11:47:00.290Z,1012.08
2018-06-02T11:48:00.267Z,1012.07
2018-06-02T11:49:00.261Z,1012.12
2018-06-02T11:50:00.249Z,1012.08
2018-06-02T11:51:00.240Z,1012.12
2018-06-02T11:52:00.242Z,1012.11
2018-06-02T11:53:00.220Z,1012.10
2018-06-02T11:54:00.211Z,1012.11
2018-06-02T11:55:00.210Z,1012.12
2018-06-02T11:56:00.192Z,1012.13
2018-06-02T11:57:00.238Z,1012.07
2018-06-02T11:58:00.168Z,1012.12
2018-06-02T11:59:00.159Z,1012.12
2018-06-02T12:00:00.155Z,1012.13
2018-06-02T12:01:00.254Z,1012.10
2018-06-02T12:02:00.130Z,1012.11
2018-06-02T12:03:00.119Z,1012.04
2018-06-02T12:04:00.113Z,1012.07
2018-06-02T12:05:00.106Z,1012.03
2018-06-02T12:06:00.105Z,1012.02
2018-06-02T12:07:00.140Z,1012.07
2018-06-02T12:08:00.078Z,1012.05
2018-06-02T12:09:00.062Z,1012.03
2018-06-02T12:10:00.053Z,1012.07
2018-06-02T12:11:00.057Z,1012.02
2018-06-02T12:12:00.035Z,1012.07
2018-06-02T12:13:00.024Z,1012.10
2018-06-02T12:14:00.027Z,1012.09
2018-06-02T12:15:00.001Z,1012.06
2018-06-02T12:15:59.990Z,1012.09
2018-06-02T12:16:59.986Z,1012.08
2018-06-02T12:17:59.967Z,1012.11
2018-06-02T12:18:59.968Z,1012.08
2018-06-02T12:19:59.963Z,1012.09
2018-06-02T12:20:59.953Z,1012.11
2018-06-02T12:23:59.920Z,1012.07
2018-06-02T12:24:59.909Z,1012.09
2018-06-02T12:25:59.897Z,1012.12
2018-06-02T12:26:59.892Z,1012.07
2018-06-02T12:27:59.884Z,1012.09
2018-06-02T12:28:59.872Z,1012.08
2018-06-02T12:29:59.862Z,1012.12
2018-06-02T12:30:59.849Z,1012.09
2018-06-02T12:31:59.891Z,1012.07
2018-06-02T12:32:59.831Z,1012.14
2018-06-02T12:33:59.828Z,1012.12
2018-06-02T12:34:59.821Z,1012.08
2018-06-02T12:35:59.798Z,1012.10
2018-06-02T12:36:59.793Z,1012.09
2018-06-02T12:37:59.781Z,1012.12
2018-06-02T12:38:59.769Z,1012.11
2018-06-02T12:39:59.762Z,1012.09
2018-06-02T12:40:59.753Z,1012.08
2018-06-02T12:41:59.742Z,1012.14
2018-06-02T12:42:59.730Z,1012.12
2018-06-02T12:43:59.724Z,1012.14
2018-06-02T12:44:59.709Z,1012.11
2018-06-02T12:45:59.705Z,1012.13
2018-06-02T12:46:59.699Z,1012.14
2018-06-02T12:47:59.683Z,1012.12
2018-06-02T12:48:59.674Z,1012.14
2018-06-02T12:49:59.664Z,1012.15
2018-06-02T12:50:59.657Z,1012.15
2018-06-02T12:51:59.651Z,1012.14
2018-06-02T12:52:59.641Z,1012.15
2018-06-02T12:53:59.628Z,1012.14
2018-06-02T12:54:59.619Z,1012.12
2018-06-02T12:55:59.603Z,1012.12